Time;durP1;ratioP1;P1;durP2;ratioP2;P2;SDS_P1;SDS_P2;PMS_P1;PMS_P2;Temp;Humidity;BMP_temperature;BMP_pressure;BME280_temperature;BME280_humidity;BME280_pressure;Samples;Min_cycle;Max_cycle;Signal;HPM_P1;HPM_P2
2022/09/04 00:02:29;;;;;;;6.75;2.60;;;17.90;84.00;;;;;;4807653;29;20130;-69
2022/09/04 00:05:13;;;;;;;6.00;2.55;;;16.90;90.70;;;;;;4807519;29;20066;-69
2022/09/04 00:07:45;;;;;;;6.57;2.83;;;18.90;91.20;;;;;;4807639;29;20591;-69
2022/09/04 00:10:31;;;;;;;6.47;2.83;;;18.10;81.00;;;;;;4807544;29;20545;-69
2022/09/04 00:13:13;;;;;;;6.80;2.78;;;18.00;83.90;;;;;;4807549;29;20055;-69
2022/09/04 00:15:49;;;;;;;6.00;2.63;;;18.00;83.80;;;;;;4792457;29;20066;-69
2022/09/04 00:18:34;;;;;;;4.78;2.88;;;18.90;91.30;;;;;;4807429;29;20051;-68
2022/09/04 00:21:06;;;;;;;9.00;2.72;;;17.10;90.90;;;;;;4807426;29;20055;-69
2022/09/04 00:23:57;;;;;;;4.22;2.85;;;18.10;83.70;;;;;;4807377;29;20515;-69
2022/09/04 00:26:23;;;;;;;6.30;2.53;;;;;;;;;;4807299;29;20530;-69
2022/09/04 00:28:52;;;;;;;9.23;3.28;;;18.20;83.40;;;;;;4807284;29;20129;-69
2022/09/04 00:31:27;;;;;;;5.05;2.50;;;;;;;;;;4807214;29;20057;-69
2022/09/04 00:34:11;;;;;;;4.50;2.92;;;17.00;90.60;;;;;;4807192;29;20095;-69
2022/09/04 00:36:43;;;;;;;5.47;2.92;;;17.60;88.80;;;;;;4807420;29;20124;-69
2022/09/04 00:39:14;;;;;;;7.20;2.90;;;18.10;83.80;;;;;;4807043;29;20055;-69
2022/09/04 00:42:04;;;;;;;7.47;3.13;;;17.90;81.50;;;;;;4806996;29;20049;-69
2022/09/04 00:44:55;;;;;;;5.13;2.80;;;18.10;84.00;;;;;;4806947;29;20089;-69
2022/09/04 00:47:28;;;;;;;8.32;3.10;;;;;;;;;;4806954;29;20408;-69
2022/09/04 00:50:11;;;;;;;5.38;2.72;;;17.90;81.40;;;;;;4806843;29;20525;-69
2022/09/04 00:52:53;;;;;;;7.25;3.08;;;17.80;84.50;;;;;;4806964;29;20061;-69
2022/09/04 00:55:55;;;;;;;4.30;2.87;;;18.00;81.80;;;;;;4806859;29;20050;-69
2022/09/04 00:58:21;;;;;;;;;;;17.70;85.10;;;;;;4792231;29;20054;-69
2022/09/04 01:00:47;;;;;;;10.23;2.80;;;18.20;91.60;;;;;;4806744;29;19925;-69
2022/09/04 01:03:29;;;;;;;6.93;3.28;;;17.70;81.90;;;;;;4806817;29;20055;-69
2022/09/04 01:05:57;;;;;;;7.07;2.72;;;18.20;91.60;;;;;;4806626;29;20097;-69
2022/09/04 01:08:39;;;;;;;8.77;2.70;;;;;;;;;;4806318;29;20437;-69
2022/09/04 01:11:20;;;;;;;6.72;2.83;;;17.60;82.80;;;;;;4806508;29;20050;-69
2022/09/04 01:14:09;;;;;;;14.75;2.70;;;18.30;91.80;;;;;;4791598;29;20101;-69
2022/09/04 01:16:49;;;;;;;7.88;3.08;;;17.80;85.20;;;;;;4806472;29;20054;-69
2022/09/04 01:19:40;;;;;;;5.68;3.00;;;16.40;91.40;;;;;;4806227;29;20054;-69
2022/09/04 01:22:06;;;;;;;8.93;3.03;;;;;;;;;;4806316;29;20057;-69
2022/09/04 01:24:52;;;;;;;7.78;2.90;;;17.20;85.60;;;;;;4791399;29;20056;-69
2022/09/04 01:27:28;;;;;;;5.88;2.92;;;;;;;;;;4779215;29;20061;-69
2022/09/04 01:30:06;;;;;;;12.10;4.20;;;;;;;;;;4806141;29;20107;-69
2022/09/04 01:32:45;;;;;;;8.85;3.08;;;17.60;85.70;;;;;;4806134;29;20070;-68
2022/09/04 01:35:32;;;;;;;7.65;3.22;;;16.70;91.90;;;;;;4806127;29;20051;-69
2022/09/04 01:37:58;;;;;;;6.03;2.88;;;;;;;;;;4806233;29;20137;-69
2022/09/04 01:40:34;;;;;;;4.05;3.20;;;18.00;92.50;;;;;;4806527;29;20078;-69
2022/09/04 01:43:17;;;;;;;5.00;3.03;;;;;;;;;;4806113;29;20169;-69
2022/09/04 01:45:49;;;;;;;6.70;3.15;;;;;;;;;;4805876;29;20054;-69
2022/09/04 01:48:30;;;;;;;7.35;3.20;;;17.30;86.70;;;;;;4805862;29;20082;-69
2022/09/04 01:51:02;;;;;;;5.53;3.10;;;18.40;92.70;;;;;;4805941;29;20162;-69
2022/09/04 01:53:30;;;;;;;6.47;3.65;;;17.20;86.40;;;;;;4806001;29;20489;-68
2022/09/04 01:56:12;;;;;;;4.10;3.00;;;17.20;84.30;;;;;;4805754;29;20054;-69
2022/09/04 01:58:53;;;;;;;13.45;3.17;;;17.30;86.10;;;;;;4805731;29;20046;-69
2022/09/04 02:01:22;;;;;;;5.20;3.10;;;18.20;86.40;;;;;;4806027;29;20057;-69
2022/09/04 02:04:19;;;;;;;6.95;3.10;;;17.20;87.70;;;;;;4805576;29;20142;-69
2022/09/04 02:06:45;;;;;;;5.50;3.05;;;;;;;;;;4805918;29;20047;-68
2022/09/04 02:09:14;;;;;;;11.65;3.53;;;;;;;;;;4805502;29;20057;-69
2022/09/04 02:11:50;;;;;;;9.13;3.55;;;17.00;87.50;;;;;;4805436;29;20082;-68
2022/09/04 02:14:34;;;;;;;8.80;3.50;;;17.00;87.90;;;;;;4806826;29;20058;-69
2022/09/04 02:17:17;;;;;;;14.27;3.95;;;16.10;92.70;;;;;;4805586;29;20176;-69
2022/09/04 02:19:47;;;;;;;5.35;3.35;;;16.90;85.90;;;;;;4805872;29;20111;-69
2022/09/04 02:22:27;;;;;;;3.72;3.17;;;16.20;91.00;;;;;;4805319;29;20088;-69
2022/09/04 02:24:58;;;;;;;7.13;3.47;;;16.90;87.90;;;;;;4805293;29;20103;-69
2022/09/04 02:27:57;;;;;;;5.63;3.50;;;16.90;88.40;;;;;;4805622;29;20070;-69
2022/09/04 02:30:24;;;;;;;7.85;3.33;;;;;;;;;;4805195;29;20194;-69
2022/09/04 02:33:15;;;;;;;8.02;3.35;;;16.90;88.50;;;;;;4805166;29;20050;-69
2022/09/04 02:36:01;;;;;;;7.87;3.53;;;16.60;93.10;;;;;;4790154;29;20061;-69
2022/09/04 02:38:55;;;;;;;5.43;3.20;;;17.00;86.90;;;;;;4805348;29;20050;-69
2022/09/04 02:41:38;;;;;;;9.13;3.33;;;16.60;88.70;;;;;;4805227;29;20130;-69
2022/09/04 02:44:26;;;;;;;9.80;3.75;;;16.60;89.20;;;;;;4806366;29;20047;-69
2022/09/04 02:47:05;;;;;;;5.05;3.65;;;16.70;89.30;;;;;;4804906;29;20404;-69
2022/09/04 02:49:53;;;;;;;5.38;3.35;;;16.70;87.50;;;;;;4804964;29;20051;-69
2022/09/04 02:52:39;;;;;;;9.38;3.72;;;15.90;93.50;;;;;;4804920;29;20146;-69
2022/09/04 02:55:47;;;;;;;8.50;3.85;;;16.50;87.40;;;;;;4804816;29;20051;-69
2022/09/04 02:58:48;;;;;;;6.97;3.67;;;16.30;89.80;;;;;;4764915;29;20062;-69
2022/09/04 03:01:42;;;;;;;5.20;3.85;;;16.70;89.80;;;;;;4790271;29;20069;-69
2022/09/04 03:04:14;;;;;;;11.00;3.83;;;16.40;90.00;;;;;;4804912;29;20090;-69
2022/09/04 03:06:49;;;;;;;7.00;3.63;;;16.40;87.70;;;;;;4806011;29;20090;-69
2022/09/04 03:09:26;;;;;;;6.32;3.67;;;16.20;90.30;;;;;;4789806;29;20111;-69
2022/09/04 03:12:30;;;;;;;7.18;4.00;;;16.20;90.70;;;;;;4804734;29;20501;-69
2022/09/04 03:15:00;;;;;;;8.52;3.47;;;;;;;;;;4777582;29;20054;-69
2022/09/04 03:17:50;;;;;;;5.95;3.47;;;16.00;90.60;;;;;;4804858;29;20504;-68
2022/09/04 03:20:22;;;;;;;6.80;4.00;;;15.80;90.90;;;;;;4804824;29;20388;-69
2022/09/04 03:23:17;;;;;;;5.53;4.10;;;16.00;91.00;;;;;;4805068;29;20392;-69
2022/09/04 03:25:43;;;;;;;5.75;3.60;;;;;;;;;;4804671;29;20055;-69
2022/09/04 03:28:19;;;;;;;5.47;3.97;;;16.10;90.90;;;;;;4789694;29;20042;-69
2022/09/04 03:30:46;;;;;;;5.47;3.95;;;15.90;90.30;;;;;;4806173;29;20074;-69
2022/09/04 03:33:20;;;;;;;10.73;4.45;;;;;;;;;;4808210;29;20051;-69
2022/09/04 03:36:08;;;;;;;9.38;3.83;;;15.00;94.70;;;;;;4808512;29;20061;-69
2022/09/04 03:38:50;;;;;;;7.50;4.07;;;15.90;91.10;;;;;;4808149;29;20058;-69
2022/09/04 03:41:16;;;;;;;7.10;3.83;;;;;;;;;;4808185;29;20092;-68
2022/09/04 03:44:19;;;;;;;9.63;4.05;;;15.90;91.40;;;;;;4808279;29;20047;-69
2022/09/04 03:47:00;;;;;;;6.20;4.20;;;15.80;91.10;;;;;;4796751;29;20050;-69
2022/09/04 03:50:03;;;;;;;8.30;4.05;;;15.20;94.80;;;;;;4808224;29;20070;-69
2022/09/04 03:52:48;;;;;;;10.90;3.50;;;;;;;;;;4807871;29;20053;-71
2022/09/04 03:55:39;;;;;;;6.90;3.97;;;15.70;89.70;;;;;;4807682;29;20046;-71
2022/09/04 03:58:13;;;;;;;7.70;4.30;;;15.80;90.20;;;;;;4807944;29;20054;-71
2022/09/04 04:00:49;;;;;;;6.75;4.22;;;15.80;91.00;;;;;;4807681;29;20124;-71
2022/09/04 04:03:30;;;;;;;8.80;4.03;;;;;;;;;;4807694;29;20062;-71
2022/09/04 04:06:17;;;;;;;9.40;4.20;;;16.10;90.80;;;;;;4807707;29;20058;-71
2022/09/04 04:09:10;;;;;;;6.07;4.13;;;16.00;91.40;;;;;;4807704;29;20043;-71
2022/09/04 04:11:44;;;;;;;5.65;4.10;;;;;;;;;;4807550;29;20038;-71
2022/09/04 04:14:41;;;;;;;6.63;4.28;;;15.80;91.40;;;;;;4807472;29;20126;-71
2022/09/04 04:17:30;;;;;;;6.85;4.45;;;14.70;94.90;;;;;;4792506;29;20085;-71
2022/09/04 04:20:01;;;;;;;8.15;4.38;;;;;;;;;;4808546;29;20468;-71
2022/09/04 04:22:33;;;;;;;13.85;4.22;;;16.60;95.40;;;;;;4807570;29;20089;-71
2022/09/04 04:25:06;;;;;;;6.95;4.55;;;;;;;;;;4807505;29;20111;-71
2022/09/04 04:27:32;;;;;;;6.00;4.40;;;;;;;;;;4807462;29;20126;-71
2022/09/04 04:30:05;;;;;;;6.25;4.30;;;15.80;90.20;;;;;;4807297;29;20051;-71
2022/09/04 04:32:50;;;;;;;9.82;4.30;;;;;;;;;;4807214;29;20046;-71
2022/09/04 04:35:17;;;;;;;13.95;4.28;;;;;;;;;;4807096;29;20086;-71
2022/09/04 04:37:52;;;;;;;9.38;4.50;;;;;;;;;;4807089;29;20385;-71
2022/09/04 04:40:27;;;;;;;11.65;4.28;;;;;;;;;;4807124;29;20062;-71
2022/09/04 04:43:00;;;;;;;8.80;4.53;;;;;;;;;;4806407;29;20061;-71
2022/09/04 04:45:51;;;;;;;5.68;4.13;;;15.60;91.60;;;;;;4807211;29;20126;-71
2022/09/04 04:48:47;;;;;;;11.57;4.72;;;15.80;91.00;;;;;;4807014;29;20654;-71
2022/09/04 04:51:39;;;;;;;8.88;4.40;;;15.70;90.70;;;;;;4807001;29;20497;-71
2022/09/04 04:54:23;;;;;;;9.90;4.60;;;15.60;91.10;;;;;;4806924;29;20125;-71
2022/09/04 04:57:09;;;;;;;9.38;4.22;;;15.80;92.00;;;;;;4806828;29;20078;-71
2022/09/04 04:59:35;;;;;;;7.18;4.57;;;;;;;;;;4806890;29;20054;-69
2022/09/04 05:02:27;;;;;;;13.23;4.35;;;15.80;91.20;;;;;;4806886;29;20051;-69
2022/09/04 05:05:01;;;;;;;8.23;4.60;;;;;;;;;;4806642;29;20472;-69
2022/09/04 05:07:35;;;;;;;7.03;4.53;;;;;;;;;;4806684;29;20050;-69
2022/09/04 05:10:40;;;;;;;7.97;4.65;;;15.70;91.40;;;;;;4806717;29;20047;-69
2022/09/04 05:13:24;;;;;;;10.27;4.95;;;15.50;90.90;;;;;;4779240;29;20054;-69
2022/09/04 05:15:50;;;;;;;9.80;4.60;;;;;;;;;;4806698;29;20416;-69
2022/09/04 05:18:39;;;;;;;8.27;4.63;;;;;;;;;;4806439;29;20053;-69
2022/09/04 05:21:24;;;;;;;11.10;4.70;;;;;;;;;;4791466;29;20072;-69
2022/09/04 05:24:03;;;;;;;8.85;4.55;;;;;;;;;;4806645;29;20077;-69
2022/09/04 05:26:40;;;;;;;6.68;4.43;;;15.70;91.20;;;;;;4806609;29;20046;-69
2022/09/04 05:29:20;;;;;;;6.88;4.53;;;15.80;92.10;;;;;;4806231;29;20057;-69
2022/09/04 05:31:56;;;;;;;7.22;4.63;;;15.80;92.30;;;;;;4806249;29;20058;-69
2022/09/04 05:34:40;;;;;;;12.00;4.88;;;15.70;92.20;;;;;;4791382;29;20046;-69
2022/09/04 05:37:18;;;;;;;7.53;4.72;;;15.70;91.70;;;;;;4791279;29;20120;-69
2022/09/04 05:39:53;;;;;;;9.25;5.03;;;;;;;;;;4806225;29;20377;-69
2022/09/04 05:42:19;;;;;;;9.13;5.20;;;;;;;;;;4806137;29;20047;-69
2022/09/04 05:44:51;;;;;;;14.15;4.90;;;;;;;;;;4790985;29;20177;-69
2022/09/04 05:47:24;;;;;;;6.80;4.65;;;15.70;92.50;;;;;;4806020;29;20046;-69
2022/09/04 05:50:16;;;;;;;10.32;5.40;;;15.70;92.70;;;;;;4805988;29;20184;-69
2022/09/04 05:53:00;;;;;;;5.97;4.50;;;16.00;91.70;;;;;;4806172;29;20073;-69
2022/09/04 05:55:47;;;;;;;8.18;5.00;;;15.60;91.60;;;;;;4805969;29;20706;-69
2022/09/04 05:58:35;;;;;;;9.15;4.93;;;16.20;92.70;;;;;;4805725;29;20078;-69
2022/09/04 06:01:22;;;;;;;11.35;5.38;;;;;;;;;;4790664;29;20450;-69
2022/09/04 06:03:48;;;;;;;7.97;4.65;;;;;;;;;;4805582;29;20063;-69
2022/09/04 06:06:52;;;;;;;9.57;4.90;;;16.10;92.60;;;;;;4790587;29;20128;-69
2022/09/04 06:09:27;;;;;;;8.02;4.47;;;;;;;;;;4805462;29;20050;-69
2022/09/04 06:11:59;;;;;;;9.82;4.45;;;;;;;;;;4805582;29;20488;-69
2022/09/04 06:14:38;;;;;;;8.73;5.45;;;16.00;92.90;;;;;;4805537;29;20134;-69
2022/09/04 06:17:07;;;;;;;9.07;5.63;;;;;;;;;;4805463;29;20500;-69
2022/09/04 06:20:05;;;;;;;7.55;5.55;;;15.90;92.90;;;;;;4805571;29;20046;-69
2022/09/04 06:22:40;;;;;;;9.73;5.50;;;;;;;;;;4790356;29;20055;-69
2022/09/04 06:25:43;;;;;;;8.77;5.45;;;16.00;91.90;;;;;;4805640;29;20050;-69
2022/09/04 06:28:09;;;;;;;7.72;4.93;;;;;;;;;;4805422;29;20065;-69
2022/09/04 06:30:50;;;;;;;10.10;5.18;;;;;;;;;;4805156;29;20089;-69
2022/09/04 06:34:03;;;;;;;8.73;5.53;;;16.20;91.70;;;;;;4805184;29;20054;-69
2022/09/04 06:36:46;;;;;;;7.05;5.40;;;16.30;92.70;;;;;;4750747;30;20105;-69
2022/09/04 06:39:15;;;;;;;8.73;5.18;;;;;;;;;;4750882;30;20095;-69
2022/09/04 06:41:59;;;;;;;11.65;5.18;;;16.50;92.70;;;;;;4769165;29;20054;-69
2022/09/04 06:44:25;;;;;;;8.73;5.57;;;;;;;;;;4805087;29;20082;-69
2022/09/04 06:47:00;;;;;;;7.93;5.55;;;;;;;;;;4805008;29;20050;-69
2022/09/04 06:49:35;;;;;;;12.95;5.65;;;15.90;96.50;;;;;;4805085;29;20050;-69
2022/09/04 06:52:14;;;;;;;10.30;5.65;;;;;;;;;;4805040;29;20054;-69
2022/09/04 06:54:54;;;;;;;16.05;5.70;;;16.60;92.50;;;;;;4805051;29;20054;-69
2022/09/04 06:57:47;;;;;;;8.43;5.32;;;16.70;91.70;;;;;;4804764;29;20065;-69
2022/09/04 07:00:18;;;;;;;7.50;5.30;;;;;;;;;;4804850;29;20055;-69
2022/09/04 07:03:03;;;;;;;12.98;5.03;;;;;;;;;;4804944;29;20050;-69
2022/09/04 07:05:47;;;;;;;8.60;5.25;;;16.90;91.50;;;;;;4806942;29;20125;-69
2022/09/04 07:08:49;;;;;;;7.47;5.10;;;16.90;91.80;;;;;;4810810;29;20078;-69
2022/09/04 07:11:38;;;;;;;11.38;5.05;;;16.90;92.70;;;;;;4810840;29;20133;-70
2022/09/04 07:14:16;;;;;;;9.95;5.38;;;;;;;;;;4810699;29;20055;-70
2022/09/04 07:16:54;;;;;;;8.70;5.28;;;;;;;;;;4810724;29;20519;-70
2022/09/04 07:19:28;;;;;;;15.50;6.00;;;;;;;;;;4811210;29;20047;-70
2022/09/04 07:21:58;;;;;;;8.80;5.30;;;;;;;;;;4810738;29;20515;-69
2022/09/04 07:25:02;;;;;;;7.97;5.60;;;17.20;91.60;;;;;;4811230;29;20049;-70
2022/09/04 07:27:51;;;;;;;13.73;5.63;;;17.10;91.50;;;;;;4811074;29;20051;-70
2022/09/04 07:30:19;;;;;;;11.63;5.80;;;;;;;;;;4810693;29;20468;-69
2022/09/04 07:32:45;;;;;;;8.57;5.35;;;;;;;;;;4810641;29;20073;-69
2022/09/04 07:35:41;;;;;;;17.88;5.53;;;17.20;92.40;;;;;;4810635;29;20058;-70
2022/09/04 07:38:07;;;;;;;10.07;5.68;;;;;;;;;;4810849;29;20407;-70
2022/09/04 07:40:39;;;;;;;9.98;5.68;;;17.20;92.10;;;;;;4795621;29;20047;-69
2022/09/04 07:43:05;;;;;;;16.00;5.68;;;;;;;;;;4810549;29;20057;-69
2022/09/04 07:45:46;;;;;;;9.38;5.57;;;18.40;96.40;;;;;;4810502;29;20043;-70
2022/09/04 07:48:37;;;;;;;10.15;4.93;;;17.90;92.30;;;;;;4810783;29;20097;-70
2022/09/04 07:51:09;;;;;;;9.75;5.40;;;;;;;;;;4810681;29;20090;-70
2022/09/04 07:53:53;;;;;;;8.43;5.15;;;;;;;;;;4810501;29;20050;-69
2022/09/04 07:56:31;;;;;;;9.10;5.82;;;17.90;91.10;;;;;;4810292;29;20054;-70
2022/09/04 07:59:24;;;;;;;7.78;4.90;;;17.90;91.00;;;;;;4810079;29;20078;-70
2022/09/04 08:02:05;;;;;;;12.38;5.28;;;17.90;95.60;;;;;;4795220;29;20046;-70
2022/09/04 08:05:18;;;;;;;10.40;5.22;;;18.40;91.50;;;;;;4810178;29;20059;-69
2022/09/04 08:08:02;;;;;;;9.75;5.15;;;17.60;95.40;;;;;;4786270;29;20054;-70
2022/09/04 08:10:31;;;;;;;11.48;5.65;;;;;;;;;;4810710;29;20055;-70
2022/09/04 08:13:12;;;;;;;7.53;4.90;;;18.50;91.40;;;;;;4810339;29;20042;-70
2022/09/04 08:15:51;;;;;;;9.32;4.80;;;;;;;;;;4810561;29;20508;-70
2022/09/04 08:18:23;;;;;;;7.72;5.45;;;18.90;91.40;;;;;;4806840;29;20153;-70
2022/09/04 08:20:49;;;;;;;;;;;18.70;91.40;;;;;;4807699;29;20496;-70
2022/09/04 08:23:37;;;;;;;6.70;5.35;;;18.70;89.80;;;;;;4807348;29;19921;-69
2022/09/04 08:26:03;;;;;;;9.65;5.05;;;;;;;;;;4807104;29;20045;-70
2022/09/04 08:28:47;;;;;;;6.60;5.00;;;19.80;95.20;;;;;;4792057;29;20101;-70
2022/09/04 08:31:20;;;;;;;12.02;5.65;;;;;;;;;;4807061;29;20050;-70
2022/09/04 08:34:03;;;;;;;9.32;5.78;;;19.00;89.20;;;;;;4792125;29;20050;-70
2022/09/04 08:36:49;;;;;;;16.65;5.50;;;19.30;91.00;;;;;;4807240;29;20169;-69
2022/09/04 08:39:39;;;;;;;8.18;5.28;;;19.20;90.10;;;;;;4792251;29;20059;-69
2022/09/04 08:42:26;;;;;;;10.10;5.70;;;18.80;94.80;;;;;;4807089;29;20046;-69
2022/09/04 08:45:19;;;;;;;8.77;4.72;;;19.60;90.10;;;;;;4791924;29;20062;-70
2022/09/04 08:47:45;;;;;;;;;;;;;;;;;;4807756;29;20076;-70
2022/09/04 08:50:28;;;;;;;8.00;5.40;;;19.70;94.70;;;;;;4807037;29;20383;-69
2022/09/04 08:52:57;;;;;;;18.50;6.10;;;;;;;;;;4807125;29;20046;-69
2022/09/04 08:55:38;;;;;;;9.95;5.22;;;19.80;94.60;;;;;;4806778;29;20051;-70
2022/09/04 08:58:41;;;;;;;9.30;5.38;;;20.00;88.30;;;;;;4806820;29;20130;-70
2022/09/04 09:01:45;;;;;;;13.35;5.50;;;20.40;91.00;;;;;;4806817;29;20047;-70
2022/09/04 09:04:48;;;;;;;10.80;5.32;;;20.10;88.10;;;;;;4806516;29;20066;-69
2022/09/04 09:07:32;;;;;;;10.32;5.47;;;20.10;90.50;;;;;;4806619;29;20047;-70
2022/09/04 09:10:19;;;;;;;7.82;4.80;;;19.80;94.20;;;;;;4806607;29;20043;-70
2022/09/04 09:13:15;;;;;;;9.32;4.97;;;20.20;94.20;;;;;;4806686;29;20054;-70
2022/09/04 09:15:47;;;;;;;14.63;5.53;;;19.50;93.90;;;;;;4806535;29;20043;-70
2022/09/04 09:18:38;;;;;;;8.95;4.95;;;20.90;89.50;;;;;;4806539;29;20057;-70
2022/09/04 09:21:05;;;;;;;7.77;4.93;;;;;;;;;;4806372;29;20511;-70
2022/09/04 09:23:42;;;;;;;10.20;5.57;;;20.00;93.60;;;;;;4791336;29;20284;-70
2022/09/04 09:26:29;;;;;;;12.63;5.35;;;21.20;91.80;;;;;;4806274;29;20397;-70
2022/09/04 09:29:17;;;;;;;8.20;5.00;;;20.80;93.70;;;;;;4791233;29;20051;-70
2022/09/04 09:31:42;;;;;;;10.93;5.30;;;21.70;93.90;;;;;;4806574;29;20079;-70
2022/09/04 09:34:24;;;;;;;11.60;5.10;;;21.50;93.60;;;;;;4806313;29;20085;-70
2022/09/04 09:37:01;;;;;;;8.98;4.85;;;21.60;93.40;;;;;;4806558;29;20493;-70
2022/09/04 09:39:53;;;;;;;9.70;4.82;;;21.10;92.00;;;;;;4806357;29;20055;-70
2022/09/04 09:42:36;;;;;;;7.07;4.88;;;21.80;93.00;;;;;;4785621;29;20059;-69
2022/09/04 09:45:25;;;;;;;7.03;4.95;;;22.10;93.10;;;;;;4806061;29;20082;-70
2022/09/04 09:48:03;;;;;;;8.60;4.70;;;21.90;93.00;;;;;;4806153;29;20050;-70
2022/09/04 09:51:07;;;;;;;6.38;4.63;;;21.40;85.00;;;;;;4806157;29;20629;-69
2022/09/04 09:53:57;;;;;;;7.85;4.97;;;21.60;92.50;;;;;;4805965;29;20053;-70
2022/09/04 09:56:29;;;;;;;10.07;4.68;;;22.50;92.70;;;;;;4805968;29;20062;-70
2022/09/04 09:59:23;;;;;;;5.75;4.70;;;21.90;92.40;;;;;;4806126;29;20043;-70
2022/09/04 10:01:57;;;;;;;13.25;5.72;;;21.60;92.20;;;;;;4805969;29;20462;-70
2022/09/04 10:04:40;;;;;;;7.88;4.70;;;22.50;92.30;;;;;;4805609;29;20094;-70
2022/09/04 10:07:37;;;;;;;12.85;5.15;;;22.40;90.90;;;;;;4805685;29;20055;-71
2022/09/04 10:10:23;;;;;;;10.88;4.55;;;22.10;92.20;;;;;;4805574;29;20104;-70
2022/09/04 10:13:06;;;;;;;7.55;4.60;;;23.10;92.20;;;;;;4805833;29;20058;-70
2022/09/04 10:15:38;;;;;;;6.68;4.70;;;22.50;92.00;;;;;;4805318;29;20152;-70
2022/09/04 10:18:34;;;;;;;5.85;4.50;;;22.60;92.00;;;;;;4805895;29;20039;-70
2022/09/04 10:21:20;;;;;;;5.32;4.28;;;23.00;92.00;;;;;;4805329;29;20058;-70
2022/09/04 10:24:04;;;;;;;8.27;4.50;;;22.60;81.80;;;;;;4795842;29;20055;-70
2022/09/04 10:26:58;;;;;;;7.18;4.30;;;23.30;82.10;;;;;;4805640;29;20158;-70
2022/09/04 10:29:32;;;;;;;8.50;3.90;;;22.20;91.10;;;;;;4805596;29;20378;-70
2022/09/04 10:32:05;;;;;;;12.05;4.53;;;22.80;91.10;;;;;;4805315;29;20055;-70
2022/09/04 10:34:49;;;;;;;12.73;4.53;;;23.00;91.10;;;;;;4805314;29;20047;-70
2022/09/04 10:37:36;;;;;;;6.82;4.10;;;22.70;90.80;;;;;;4805404;29;20124;-70
2022/09/04 10:40:37;;;;;;;6.78;4.32;;;24.00;89.40;;;;;;4789459;29;20154;-70
2022/09/04 10:43:40;;;;;;;13.07;4.22;;;23.90;83.40;;;;;;4805465;29;20050;-70
2022/09/04 10:46:17;;;;;;;10.70;4.57;;;23.30;90.50;;;;;;4790029;29;20057;-70
2022/09/04 10:49:16;;;;;;;8.40;4.28;;;23.90;90.30;;;;;;4805301;29;20130;-70
2022/09/04 10:51:58;;;;;;;9.93;4.40;;;23.80;90.10;;;;;;4805112;29;20095;-70
2022/09/04 10:54:53;;;;;;;8.25;4.00;;;23.90;90.00;;;;;;4805038;29;20054;-69
2022/09/04 10:57:47;;;;;;;7.93;4.13;;;24.60;90.00;;;;;;4804842;29;20509;-70
2022/09/04 11:00:19;;;;;;;7.53;4.03;;;24.50;84.00;;;;;;4804871;29;20054;-70
2022/09/04 11:03:19;;;;;;;5.68;3.80;;;24.30;90.10;;;;;;4804849;29;20047;-70
2022/09/04 11:05:54;;;;;;;5.07;3.70;;;24.50;77.00;;;;;;4805296;29;20400;-70
2022/09/04 11:08:41;;;;;;;10.50;4.03;;;24.70;76.70;;;;;;4789919;29;20043;-69
2022/09/04 11:11:15;;;;;;;6.88;3.90;;;24.90;88.70;;;;;;4805121;29;20381;-70
2022/09/04 11:14:18;;;;;;;9.73;4.13;;;24.90;88.80;;;;;;4789880;29;20111;-70
2022/09/04 11:17:08;;;;;;;6.55;3.83;;;25.10;80.70;;;;;;4804855;29;20515;-70
2022/09/04 11:19:42;;;;;;;5.88;3.85;;;25.00;76.30;;;;;;4789793;29;20501;-70
2022/09/04 11:22:40;;;;;;;7.22;4.13;;;25.10;88.00;;;;;;4805273;29;20050;-70
2022/09/04 11:25:43;;;;;;;9.27;3.80;;;24.80;87.50;;;;;;4804984;29;20055;-70
2022/09/04 11:28:09;;;;;;;11.80;3.83;;;25.30;77.60;;;;;;4804826;29;20042;-72
2022/09/04 11:30:57;;;;;;;9.75;3.95;;;25.00;74.70;;;;;;4804875;29;20053;-71
2022/09/04 11:33:40;;;;;;;8.15;3.78;;;25.60;86.90;;;;;;4804834;29;20054;-72
2022/09/04 11:36:28;;;;;;;10.00;3.72;;;25.30;75.40;;;;;;4805045;29;20126;-72
2022/09/04 11:39:30;;;;;;;6.13;3.80;;;25.50;87.10;;;;;;4805014;29;20089;-72
2022/09/04 11:42:16;;;;;;;6.55;3.58;;;25.50;74.30;;;;;;4804977;29;20054;-71
2022/09/04 11:44:51;;;;;;;5.60;3.65;;;25.10;86.00;;;;;;4789695;29;20100;-71
2022/09/04 11:47:47;;;;;;;6.18;3.90;;;25.90;86.40;;;;;;4805036;29;20054;-71
2022/09/04 11:50:15;;;;;;;8.40;3.83;;;25.30;85.80;;;;;;4804687;29;20047;-71
2022/09/04 11:53:14;;;;;;;6.72;4.13;;;25.70;76.90;;;;;;4807146;29;20062;-71
2022/09/04 11:55:45;;;;;;;5.35;3.70;;;25.80;86.00;;;;;;4808037;29;20054;-72
2022/09/04 11:59:03;;;;;;;6.63;3.72;;;25.20;85.30;;;;;;4808060;29;20042;-71
2022/09/04 12:01:56;;;;;;;5.55;4.15;;;25.50;84.00;;;;;;4764240;29;20382;-72
2022/09/04 12:04:41;;;;;;;7.47;4.10;;;25.90;85.60;;;;;;4807746;29;20107;-71
2022/09/04 12:07:12;;;;;;;8.32;3.80;;;26.00;85.80;;;;;;4807811;29;20454;-72
2022/09/04 12:10:07;;;;;;;6.30;3.63;;;25.60;84.70;;;;;;4807848;29;20126;-71
2022/09/04 12:12:36;;;;;;;8.32;3.53;;;26.20;85.00;;;;;;4808047;29;20050;-72
2022/09/04 12:15:01;;;;;;;9.25;4.22;;;26.40;81.40;;;;;;4807790;29;20523;-72
2022/09/04 12:17:35;;;;;;;7.63;3.95;;;26.10;74.60;;;;;;4807642;29;20080;-72
2022/09/04 12:20:31;;;;;;;4.35;3.40;;;26.00;83.90;;;;;;4807562;29;20050;-71
2022/09/04 12:23:25;;;;;;;8.82;4.07;;;26.00;73.40;;;;;;4807692;29;20051;-71
2022/09/04 12:26:21;;;;;;;5.68;3.42;;;26.40;84.10;;;;;;4807805;29;20361;-71
2022/09/04 12:28:53;;;;;;;6.10;4.25;;;26.00;73.40;;;;;;4807609;29;20055;-72
2022/09/04 12:31:53;;;;;;;12.40;3.90;;;26.60;73.20;;;;;;4807564;29;20047;-71
2022/09/04 12:34:44;;;;;;;5.72;3.85;;;26.20;71.50;;;;;;4792277;29;20046;-71
2022/09/04 12:37:11;;;;;;;4.68;3.63;;;;;;;;;;4807354;29;20180;-71
2022/09/04 12:39:49;;;;;;;4.45;3.38;;;26.70;83.30;;;;;;4792122;29;20051;-72
2022/09/04 12:42:18;;;;;;;7.30;3.17;;;26.70;83.40;;;;;;4807497;29;20051;-71
2022/09/04 12:44:52;;;;;;;8.27;3.80;;;26.40;82.30;;;;;;4808261;29;20557;-72
2022/09/04 12:47:31;;;;;;;6.20;3.45;;;27.00;82.20;;;;;;4807239;29;20038;-71
2022/09/04 12:50:05;;;;;;;7.70;3.80;;;27.10;82.20;;;;;;4807226;29;20445;-72
2022/09/04 12:52:47;;;;;;;8.73;3.75;;;26.80;81.30;;;;;;4807378;29;20050;-72
2022/09/04 12:55:44;;;;;;;4.70;3.30;;;27.30;81.70;;;;;;4806973;29;20054;-71
2022/09/04 12:58:46;;;;;;;7.97;3.45;;;27.30;82.30;;;;;;4807235;29;20335;-72
2022/09/04 13:01:17;;;;;;;;;;;27.30;70.20;;;;;;4738032;30;20102;-71
2022/09/04 13:03:53;;;;;;;9.30;3.60;;;27.30;81.50;;;;;;4798193;29;20336;-71
2022/09/04 13:07:03;;;;;;;5.32;3.75;;;27.20;81.90;;;;;;4806865;29;20515;-71
2022/09/04 13:09:40;;;;;;;10.98;3.78;;;27.80;80.80;;;;;;4778340;29;20058;-72
2022/09/04 13:12:23;;;;;;;7.57;3.72;;;27.40;72.10;;;;;;4806826;29;20051;-71
2022/09/04 13:15:02;;;;;;;8.10;3.47;;;27.70;80.70;;;;;;4806632;29;20055;-71
2022/09/04 13:17:40;;;;;;;10.68;3.65;;;27.70;70.00;;;;;;4806489;29;20228;-71
2022/09/04 13:20:12;;;;;;;5.05;3.58;;;27.50;80.30;;;;;;4791310;29;20204;-71
2022/09/04 13:22:41;;;;;;;6.78;3.63;;;27.70;80.40;;;;;;4806805;29;20120;-72
2022/09/04 13:25:21;;;;;;;7.60;3.60;;;27.60;67.90;;;;;;4806389;29;20183;-71
2022/09/04 13:28:34;;;;;;;5.05;3.38;;;28.00;79.80;;;;;;4806491;29;20047;-71
2022/09/04 13:31:18;;;;;;;6.95;3.33;;;27.90;79.70;;;;;;4806169;29;20057;-71
2022/09/04 13:33:53;;;;;;;7.97;3.50;;;28.30;79.70;;;;;;4806242;29;20082;-71
2022/09/04 13:36:57;;;;;;;4.00;3.17;;;28.00;79.10;;;;;;4806251;29;20107;-71
2022/09/04 13:39:56;;;;;;;9.05;3.60;;;28.40;79.30;;;;;;4789768;29;20070;-71
2022/09/04 13:42:49;;;;;;;4.07;3.30;;;28.60;76.20;;;;;;4806042;29;20057;-72
2022/09/04 13:45:24;;;;;;;5.38;3.20;;;28.40;78.40;;;;;;4805970;29;20054;-71
2022/09/04 13:48:09;;;;;;;7.75;3.40;;;28.70;77.90;;;;;;4805874;29;20488;-72
2022/09/04 13:50:57;;;;;;;5.20;3.40;;;28.50;77.80;;;;;;4805855;29;20092;-72
2022/09/04 13:53:29;;;;;;;5.43;3.30;;;28.10;75.20;;;;;;4805328;29;20677;-71
2022/09/04 13:56:01;;;;;;;7.65;3.35;;;28.80;77.50;;;;;;4790665;29;20061;-71
2022/09/04 13:58:33;;;;;;;6.82;3.65;;;29.20;77.70;;;;;;4807009;29;20038;-70
2022/09/04 14:01:05;;;;;;;6.80;3.50;;;28.70;67.50;;;;;;4805705;29;20047;-70
2022/09/04 14:03:43;;;;;;;4.63;3.28;;;28.90;77.00;;;;;;4805614;29;20189;-70
2022/09/04 14:06:13;;;;;;;8.27;3.65;;;29.20;77.10;;;;;;4805606;29;20057;-70
2022/09/04 14:08:41;;;;;;;6.05;3.60;;;28.70;68.40;;;;;;4807004;29;20109;-70
2022/09/04 14:11:36;;;;;;;5.18;3.42;;;28.80;76.50;;;;;;4805629;29;20089;-70
2022/09/04 14:14:20;;;;;;;4.47;3.80;;;28.20;75.90;;;;;;4805572;29;20046;-70
2022/09/04 14:16:48;;;;;;;6.35;3.22;;;29.20;76.70;;;;;;4804897;29;20089;-71
2022/09/04 14:19:42;;;;;;;6.35;3.47;;;28.70;76.50;;;;;;4790859;29;20055;-71
2022/09/04 14:22:32;;;;;;;8.75;3.55;;;29.10;76.60;;;;;;4805327;29;20172;-71
2022/09/04 14:25:17;;;;;;;4.60;3.15;;;29.30;76.60;;;;;;4805503;29;20061;-70
2022/09/04 14:28:02;;;;;;;5.07;3.45;;;29.20;76.50;;;;;;4805189;29;20550;-70